LATI/TIA METAR and TAF weather

Enter ICAO airport designator
Station Type Date Time Source
LATI METAR 2021/07/29 03:20 UTC NOAA

LATI 290320Z 15002KT CAVOK 20/17 Q1014 NOSIG


Station Type Date Time Source
LATI Decoded METAR 2021/07/29 03:20 UTC NOAA

Tirana, Albania (LATI) 41-20N 019-47E 90M
Jul 28, 2021 - 11:20 PM EDT / 2021.07.29 0320 UTC
Wind: from the SSE (150 degrees) at 2 MPH (2 KT):0
Visibility: greater than 7 mile(s):0
Temperature: 68 F (20 C)
Dew Point: 62 F (17 C)
Relative Humidity: 82%
Pressure (altimeter): 29.94 in. Hg (1014 hPa)
ob: LATI 290320Z 15002KT CAVOK 20/17 Q1014 NOSIG
cycle: 3

Station Type Date Time Source
LATI TAF 2021/07/28 18:05 UTC NOAA

TAF LATI 281700Z 2818/2918 VRB03KT CAVOK TX39/2912Z TN20/2903Z
TEMPO 2910/2916 33012KT

Example: see airport list